Αρχική σελίδα
METAR-TAF:

METAR-TAF

Αεροδρόμια :

Καράκας, Βενεζουέλα

γεωγραφικό πλάτος: 10-36N, γεωγραφικό μήκος: 066-59W, υψόμετρο: 43 μ

Παρών καιρός

Η αναφορά έγινε 12 λεπτά πριν, στις 04:00 UTC
Θερμοκρασία 26°C
Υγρασία 79%
Πίεση 1013 hPa
Ορατότητα 10 χλμ και άνω
Αρκετά νέφη σε ύψος 1600 πόδια

METAR: SVMI 230400Z /////KT 9999 BKN016 26/22 Q1013

Χρόνος: 00:12 (04:12 UTC)

Πρόγνωση Καιρού

Η αναφορά έγινε 6 ώρες και 12 λεπτά πριν, στις 22:00 UTC
Η πρόγνωση ισχύει από τις 23 στις 00 UTC έως τις 24 στις 00 UTC
Άνεμος 3 kt από Ν
Ορατότητα 10 χλμ και άνω
Διάσπαρτα νέφη σε ύψος 1600 πόδια
Καθιστάμενος
από 23 στις 08 UTC έως τις 23 στις 12 UTC
Άνεμος 2 kt από Β
Ορατότητα: 9000 μ
Διάσπαρτα νέφη σε ύψος 1600 πόδια
Αρκετά νέφη σε ύψος 8000 πόδια
Ψιλόβροχο

TAF: SVMI 222200Z 2300/2400 18003KT 9999 SCT016 TX33/18Z TN25/09Z BECMG 2308/2312 36002KT 9000 DZ SCT016 BKN080

Μετεωρολογικές αναφορές και προγνώσεις για περισσότερα από 4000 αεροδρόμια (δελτία METAR και TAF).

Οι διαθέσιμοι σταθμοί απεικονίζονται στο χάρτη με κίτρινες και κόκκινες κουκκίδες.

Μετακινήστε το ποντίκι πάνω από τις κουκκίδες για να δείτε το όνομα του σταθμού.

Στη συνέχεια, κάντε κλικ για να δείτε τις μετεωρολογικές αναφορές και τις προγνώσεις καιρού.

Για να αλλάξετε το χάρτη: κάντε κλικ στα πράσινα κουμπιά με τον μαύρο σταυρό για να ζουμάρετε, στο πράσινο κουμπί με την παύλα για να αφαιρέσετε το ζουμ ή στα πράσινα βέλη για να αντιπαραβάλλετε χάρτες.


METAR-TAF: